sensor_id;sensor_type;location;lat;lon;timestamp;P1;durP1;ratioP1;P2;durP2;ratioP2
13834;SDS011;6988;52.614;13.500;2022-10-04T00:00:29;13.27;;;2.57;;
13834;SDS011;6988;52.614;13.500;2022-10-04T00:05:32;13.27;;;2.33;;
13834;SDS011;6988;52.614;13.500;2022-10-04T00:10:27;8.73;;;2.07;;
13834;SDS011;6988;52.614;13.500;2022-10-04T00:15:24;10.43;;;1.90;;
13834;SDS011;6988;52.614;13.500;2022-10-04T00:25:51;8.10;;;2.17;;
13834;SDS011;6988;52.614;13.500;2022-10-04T00:30:56;12.00;;;1.97;;
13834;SDS011;6988;52.614;13.500;2022-10-04T00:41:43;11.80;;;2.03;;
13834;SDS011;6988;52.614;13.500;2022-10-04T00:46:48;9.43;;;1.90;;
13834;SDS011;6988;52.614;13.500;2022-10-04T00:51:43;7.73;;;1.77;;
13834;SDS011;6988;52.614;13.500;2022-10-04T00:56:45;10.93;;;2.27;;
13834;SDS011;6988;52.614;13.500;2022-10-04T01:01:42;13.83;;;2.13;;
13834;SDS011;6988;52.614;13.500;2022-10-04T01:06:39;9.73;;;2.20;;
13834;SDS011;6988;52.614;13.500;2022-10-04T01:11:35;10.63;;;2.20;;
13834;SDS011;6988;52.614;13.500;2022-10-04T01:16:35;10.20;;;1.90;;
13834;SDS011;6988;52.614;13.500;2022-10-04T01:21:29;9.70;;;2.33;;
13834;SDS011;6988;52.614;13.500;2022-10-04T01:26:37;9.10;;;2.30;;
13834;SDS011;6988;52.614;13.500;2022-10-04T01:31:32;7.70;;;2.20;;
13834;SDS011;6988;52.614;13.500;2022-10-04T01:36:27;11.77;;;2.17;;
13834;SDS011;6988;52.614;13.500;2022-10-04T01:41:20;10.27;;;2.07;;
13834;SDS011;6988;52.614;13.500;2022-10-04T01:46:24;13.63;;;2.20;;
13834;SDS011;6988;52.614;13.500;2022-10-04T01:51:22;9.90;;;2.23;;
13834;SDS011;6988;52.614;13.500;2022-10-04T01:56:21;12.80;;;2.50;;
13834;SDS011;6988;52.614;13.500;2022-10-04T02:01:18;11.33;;;2.27;;
13834;SDS011;6988;52.614;13.500;2022-10-04T02:06:19;10.53;;;2.10;;
13834;SDS011;6988;52.614;13.500;2022-10-04T02:11:15;10.77;;;2.27;;
13834;SDS011;6988;52.614;13.500;2022-10-04T02:16:09;7.77;;;2.20;;
13834;SDS011;6988;52.614;13.500;2022-10-04T02:21:03;9.30;;;1.97;;
13834;SDS011;6988;52.614;13.500;2022-10-04T02:25:57;8.57;;;2.17;;
13834;SDS011;6988;52.614;13.500;2022-10-04T02:30:49;8.40;;;1.77;;
13834;SDS011;6988;52.614;13.500;2022-10-04T02:36:01;8.73;;;1.87;;
13834;SDS011;6988;52.614;13.500;2022-10-04T02:40:55;8.20;;;1.83;;
13834;SDS011;6988;52.614;13.500;2022-10-04T02:45:54;7.97;;;2.03;;
13834;SDS011;6988;52.614;13.500;2022-10-04T02:50:53;8.27;;;2.07;;
13834;SDS011;6988;52.614;13.500;2022-10-04T02:55:51;11.60;;;2.20;;
13834;SDS011;6988;52.614;13.500;2022-10-04T03:00:47;9.87;;;2.40;;
13834;SDS011;6988;52.614;13.500;2022-10-04T03:05:42;12.43;;;2.57;;
13834;SDS011;6988;52.614;13.500;2022-10-04T03:10:43;11.07;;;2.93;;
13834;SDS011;6988;52.614;13.500;2022-10-04T03:15:36;10.20;;;2.40;;
13834;SDS011;6988;52.614;13.500;2022-10-04T03:20:29;8.87;;;2.07;;
13834;SDS011;6988;52.614;13.500;2022-10-04T03:25:21;7.80;;;1.93;;
13834;SDS011;6988;52.614;13.500;2022-10-04T03:30:19;9.73;;;1.80;;
13834;SDS011;6988;52.614;13.500;2022-10-04T03:35:15;12.17;;;2.37;;
13834;SDS011;6988;52.614;13.500;2022-10-04T03:40:18;9.57;;;2.00;;
13834;SDS011;6988;52.614;13.500;2022-10-04T03:45:16;11.47;;;2.50;;
13834;SDS011;6988;52.614;13.500;2022-10-04T03:50:13;13.37;;;2.50;;
13834;SDS011;6988;52.614;13.500;2022-10-04T03:55:12;10.23;;;3.37;;
13834;SDS011;6988;52.614;13.500;2022-10-04T04:00:07;11.23;;;2.53;;
13834;SDS011;6988;52.614;13.500;2022-10-04T04:05:05;10.40;;;2.67;;
13834;SDS011;6988;52.614;13.500;2022-10-04T04:10:12;10.60;;;2.80;;
13834;SDS011;6988;52.614;13.500;2022-10-04T04:15:13;11.07;;;2.67;;
13834;SDS011;6988;52.614;13.500;2022-10-04T04:20:12;14.33;;;3.37;;
13834;SDS011;6988;52.614;13.500;2022-10-04T04:25:13;12.33;;;2.93;;
13834;SDS011;6988;52.614;13.500;2022-10-04T04:30:07;8.63;;;2.37;;
13834;SDS011;6988;52.614;13.500;2022-10-04T04:35:20;10.17;;;2.80;;
13834;SDS011;6988;52.614;13.500;2022-10-04T04:40:21;15.13;;;2.97;;
13834;SDS011;6988;52.614;13.500;2022-10-04T04:45:16;11.63;;;2.67;;
13834;SDS011;6988;52.614;13.500;2022-10-04T04:50:13;12.50;;;3.23;;
13834;SDS011;6988;52.614;13.500;2022-10-04T04:55:14;7.97;;;2.80;;
13834;SDS011;6988;52.614;13.500;2022-10-04T05:00:14;14.03;;;3.10;;
13834;SDS011;6988;52.614;13.500;2022-10-04T05:05:16;10.10;;;3.17;;
13834;SDS011;6988;52.614;13.500;2022-10-04T05:10:28;10.63;;;3.07;;
13834;SDS011;6988;52.614;13.500;2022-10-04T05:15:22;17.63;;;3.53;;
13834;SDS011;6988;52.614;13.500;2022-10-04T05:20:14;14.60;;;2.80;;
13834;SDS011;6988;52.614;13.500;2022-10-04T05:25:07;11.00;;;3.10;;
13834;SDS011;6988;52.614;13.500;2022-10-04T05:30:08;14.07;;;3.70;;
13834;SDS011;6988;52.614;13.500;2022-10-04T05:35:21;13.87;;;3.27;;
13834;SDS011;6988;52.614;13.500;2022-10-04T05:40:21;10.00;;;3.43;;
13834;SDS011;6988;52.614;13.500;2022-10-04T05:45:25;17.20;;;4.00;;
13834;SDS011;6988;52.614;13.500;2022-10-04T05:50:25;9.63;;;3.50;;
13834;SDS011;6988;52.614;13.500;2022-10-04T05:55:27;15.07;;;3.87;;
13834;SDS011;6988;52.614;13.500;2022-10-04T06:00:36;16.00;;;4.07;;
13834;SDS011;6988;52.614;13.500;2022-10-04T06:05:43;9.37;;;2.87;;
13834;SDS011;6988;52.614;13.500;2022-10-04T06:10:48;14.23;;;3.70;;
13834;SDS011;6988;52.614;13.500;2022-10-04T06:16:04;14.20;;;3.47;;
13834;SDS011;6988;52.614;13.500;2022-10-04T06:21:17;12.43;;;3.90;;
13834;SDS011;6988;52.614;13.500;2022-10-04T06:26:17;11.83;;;3.87;;
13834;SDS011;6988;52.614;13.500;2022-10-04T06:36:58;12.13;;;3.07;;
13834;SDS011;6988;52.614;13.500;2022-10-04T06:47:42;12.47;;;2.77;;
13834;SDS011;6988;52.614;13.500;2022-10-04T06:53:05;10.63;;;2.67;;
13834;SDS011;6988;52.614;13.500;2022-10-04T06:58:13;8.77;;;2.57;;
13834;SDS011;6988;52.614;13.500;2022-10-04T07:03:37;9.27;;;3.10;;
13834;SDS011;6988;52.614;13.500;2022-10-04T07:08:44;10.83;;;3.07;;
13834;SDS011;6988;52.614;13.500;2022-10-04T07:13:43;9.70;;;2.40;;
13834;SDS011;6988;52.614;13.500;2022-10-04T07:18:55;9.47;;;3.20;;
13834;SDS011;6988;52.614;13.500;2022-10-04T07:24:00;11.50;;;2.80;;
13834;SDS011;6988;52.614;13.500;2022-10-04T07:28:53;10.60;;;2.83;;
13834;SDS011;6988;52.614;13.500;2022-10-04T07:34:08;8.27;;;2.83;;
13834;SDS011;6988;52.614;13.500;2022-10-04T07:39:13;7.50;;;2.80;;
13834;SDS011;6988;52.614;13.500;2022-10-04T07:44:12;8.53;;;2.53;;
13834;SDS011;6988;52.614;13.500;2022-10-04T07:49:16;11.60;;;3.30;;
13834;SDS011;6988;52.614;13.500;2022-10-04T07:54:14;6.17;;;2.23;;
13834;SDS011;6988;52.614;13.500;2022-10-04T07:59:17;11.03;;;2.43;;
13834;SDS011;6988;52.614;13.500;2022-10-04T08:04:30;9.27;;;2.60;;
13834;SDS011;6988;52.614;13.500;2022-10-04T08:14:54;11.43;;;2.87;;
13834;SDS011;6988;52.614;13.500;2022-10-04T08:20:01;8.37;;;2.37;;
13834;SDS011;6988;52.614;13.500;2022-10-04T08:25:14;9.90;;;2.47;;
13834;SDS011;6988;52.614;13.500;2022-10-04T08:30:16;8.13;;;2.23;;
13834;SDS011;6988;52.614;13.500;2022-10-04T08:35:13;10.47;;;2.97;;
13834;SDS011;6988;52.614;13.500;2022-10-04T08:40:36;8.40;;;2.77;;
13834;SDS011;6988;52.614;13.500;2022-10-04T08:46:31;9.33;;;3.00;;
13834;SDS011;6988;52.614;13.500;2022-10-04T08:52:02;9.03;;;3.10;;
13834;SDS011;6988;52.614;13.500;2022-10-04T09:14:20;9.60;;;3.43;;
13834;SDS011;6988;52.614;13.500;2022-10-04T09:19:43;5.97;;;3.00;;
13834;SDS011;6988;52.614;13.500;2022-10-04T09:24:51;5.10;;;2.53;;
13834;SDS011;6988;52.614;13.500;2022-10-04T09:30:14;5.23;;;3.03;;
13834;SDS011;6988;52.614;13.500;2022-10-04T09:35:20;4.50;;;2.70;;
13834;SDS011;6988;52.614;13.500;2022-10-04T09:40:54;6.63;;;3.10;;
13834;SDS011;6988;52.614;13.500;2022-10-04T09:46:20;5.60;;;3.17;;
13834;SDS011;6988;52.614;13.500;2022-10-04T09:51:56;6.13;;;2.50;;
13834;SDS011;6988;52.614;13.500;2022-10-04T09:57:08;6.17;;;2.60;;
13834;SDS011;6988;52.614;13.500;2022-10-04T10:02:27;4.50;;;2.30;;
13834;SDS011;6988;52.614;13.500;2022-10-04T10:07:56;5.80;;;2.37;;
13834;SDS011;6988;52.614;13.500;2022-10-04T10:13:17;7.10;;;2.47;;
13834;SDS011;6988;52.614;13.500;2022-10-04T10:18:37;3.90;;;2.17;;
13834;SDS011;6988;52.614;13.500;2022-10-04T10:29:25;5.50;;;2.30;;
13834;SDS011;6988;52.614;13.500;2022-10-04T10:34:39;6.23;;;2.10;;
13834;SDS011;6988;52.614;13.500;2022-10-04T10:45:17;5.77;;;1.97;;
13834;SDS011;6988;52.614;13.500;2022-10-04T10:50:42;5.23;;;2.00;;
13834;SDS011;6988;52.614;13.500;2022-10-04T11:01:44;7.17;;;2.83;;
13834;SDS011;6988;52.614;13.500;2022-10-04T11:12:55;3.97;;;1.70;;
13834;SDS011;6988;52.614;13.500;2022-10-04T11:24:40;3.73;;;1.77;;
13834;SDS011;6988;52.614;13.500;2022-10-04T11:29:55;6.33;;;1.70;;
13834;SDS011;6988;52.614;13.500;2022-10-04T11:40:43;8.67;;;2.23;;
13834;SDS011;6988;52.614;13.500;2022-10-04T11:46:09;6.70;;;2.30;;
13834;SDS011;6988;52.614;13.500;2022-10-04T11:51:18;5.60;;;2.13;;
13834;SDS011;6988;52.614;13.500;2022-10-04T11:57:03;6.60;;;2.10;;
13834;SDS011;6988;52.614;13.500;2022-10-04T12:02:23;5.60;;;2.23;;
13834;SDS011;6988;52.614;13.500;2022-10-04T12:07:44;5.97;;;1.93;;
13834;SDS011;6988;52.614;13.500;2022-10-04T12:12:56;6.97;;;2.20;;
13834;SDS011;6988;52.614;13.500;2022-10-04T12:18:12;6.10;;;2.40;;
13834;SDS011;6988;52.614;13.500;2022-10-04T12:29:17;7.70;;;2.47;;
13834;SDS011;6988;52.614;13.500;2022-10-04T12:34:35;10.00;;;2.30;;
13834;SDS011;6988;52.614;13.500;2022-10-04T12:39:48;8.90;;;2.23;;
13834;SDS011;6988;52.614;13.500;2022-10-04T12:45:18;7.43;;;1.87;;
13834;SDS011;6988;52.614;13.500;2022-10-04T12:50:32;7.03;;;2.00;;
13834;SDS011;6988;52.614;13.500;2022-10-04T12:55:44;6.20;;;1.53;;
13834;SDS011;6988;52.614;13.500;2022-10-04T13:00:53;6.13;;;1.80;;
13834;SDS011;6988;52.614;13.500;2022-10-04T13:05:59;5.77;;;1.80;;
13834;SDS011;6988;52.614;13.500;2022-10-04T13:11:07;6.33;;;2.07;;
13834;SDS011;6988;52.614;13.500;2022-10-04T13:16:43;6.03;;;1.60;;
13834;SDS011;6988;52.614;13.500;2022-10-04T13:22:00;3.83;;;1.67;;
13834;SDS011;6988;52.614;13.500;2022-10-04T13:27:13;7.03;;;1.60;;
13834;SDS011;6988;52.614;13.500;2022-10-04T13:32:12;7.70;;;1.93;;
13834;SDS011;6988;52.614;13.500;2022-10-04T13:37:19;8.17;;;1.87;;
13834;SDS011;6988;52.614;13.500;2022-10-04T13:42:28;4.47;;;1.53;;
13834;SDS011;6988;52.614;13.500;2022-10-04T13:47:53;8.43;;;2.10;;
13834;SDS011;6988;52.614;13.500;2022-10-04T13:53:15;7.70;;;1.60;;
13834;SDS011;6988;52.614;13.500;2022-10-04T13:58:44;7.43;;;1.67;;
13834;SDS011;6988;52.614;13.500;2022-10-04T14:03:46;5.10;;;1.43;;
13834;SDS011;6988;52.614;13.500;2022-10-04T14:15:09;6.30;;;1.60;;
13834;SDS011;6988;52.614;13.500;2022-10-04T14:20:33;7.57;;;1.70;;
13834;SDS011;6988;52.614;13.500;2022-10-04T14:26:12;7.80;;;1.80;;
13834;SDS011;6988;52.614;13.500;2022-10-04T14:43:12;7.73;;;1.57;;
13834;SDS011;6988;52.614;13.500;2022-10-04T14:48:50;6.67;;;1.40;;
13834;SDS011;6988;52.614;13.500;2022-10-04T14:54:02;4.63;;;1.13;;
13834;SDS011;6988;52.614;13.500;2022-10-04T14:59:06;4.90;;;1.33;;
13834;SDS011;6988;52.614;13.500;2022-10-04T15:04:27;7.10;;;1.20;;
13834;SDS011;6988;52.614;13.500;2022-10-04T15:15:01;3.37;;;0.90;;
13834;SDS011;6988;52.614;13.500;2022-10-04T15:20:21;3.50;;;1.10;;
13834;SDS011;6988;52.614;13.500;2022-10-04T15:25:38;5.10;;;1.40;;
13834;SDS011;6988;52.614;13.500;2022-10-04T15:30:36;5.67;;;1.30;;
13834;SDS011;6988;52.614;13.500;2022-10-04T15:35:48;4.07;;;1.23;;
13834;SDS011;6988;52.614;13.500;2022-10-04T15:41:20;7.17;;;1.50;;
13834;SDS011;6988;52.614;13.500;2022-10-04T15:46:31;3.73;;;1.20;;
13834;SDS011;6988;52.614;13.500;2022-10-04T15:51:43;5.23;;;1.30;;
13834;SDS011;6988;52.614;13.500;2022-10-04T15:57:16;3.23;;;1.30;;
13834;SDS011;6988;52.614;13.500;2022-10-04T16:07:53;5.20;;;1.23;;
13834;SDS011;6988;52.614;13.500;2022-10-04T16:13:16;4.37;;;1.20;;
13834;SDS011;6988;52.614;13.500;2022-10-04T16:18:47;5.60;;;1.10;;
13834;SDS011;6988;52.614;13.500;2022-10-04T16:29:31;3.87;;;1.20;;
13834;SDS011;6988;52.614;13.500;2022-10-04T16:34:45;5.13;;;1.70;;
13834;SDS011;6988;52.614;13.500;2022-10-04T16:39:48;4.33;;;1.47;;
13834;SDS011;6988;52.614;13.500;2022-10-04T16:44:51;4.07;;;1.43;;
13834;SDS011;6988;52.614;13.500;2022-10-04T16:49:51;5.07;;;1.43;;
13834;SDS011;6988;52.614;13.500;2022-10-04T17:00:31;3.17;;;1.50;;
13834;SDS011;6988;52.614;13.500;2022-10-04T17:05:42;2.17;;;1.20;;
13834;SDS011;6988;52.614;13.500;2022-10-04T17:10:40;5.63;;;1.30;;
13834;SDS011;6988;52.614;13.500;2022-10-04T17:16:10;3.67;;;1.60;;
13834;SDS011;6988;52.614;13.500;2022-10-04T17:21:05;5.43;;;1.93;;
13834;SDS011;6988;52.614;13.500;2022-10-04T17:26:22;4.00;;;1.50;;
13834;SDS011;6988;52.614;13.500;2022-10-04T17:31:34;5.47;;;1.77;;
13834;SDS011;6988;52.614;13.500;2022-10-04T17:36:42;5.40;;;1.60;;
13834;SDS011;6988;52.614;13.500;2022-10-04T17:41:48;8.23;;;1.90;;
13834;SDS011;6988;52.614;13.500;2022-10-04T17:46:56;4.43;;;2.00;;
13834;SDS011;6988;52.614;13.500;2022-10-04T17:51:52;4.40;;;2.00;;
13834;SDS011;6988;52.614;13.500;2022-10-04T17:57:11;5.33;;;2.40;;
13834;SDS011;6988;52.614;13.500;2022-10-04T18:02:16;5.97;;;1.97;;
13834;SDS011;6988;52.614;13.500;2022-10-04T18:07:17;7.90;;;2.67;;
13834;SDS011;6988;52.614;13.500;2022-10-04T18:12:22;4.17;;;2.07;;
13834;SDS011;6988;52.614;13.500;2022-10-04T18:17:23;5.25;;;2.58;;
13834;SDS011;6988;52.614;13.500;2022-10-04T18:22:22;6.90;;;2.60;;
13834;SDS011;6988;52.614;13.500;2022-10-04T18:27:17;4.23;;;2.30;;
13834;SDS011;6988;52.614;13.500;2022-10-04T18:32:29;7.27;;;2.20;;
13834;SDS011;6988;52.614;13.500;2022-10-04T18:37:27;7.43;;;2.57;;
13834;SDS011;6988;52.614;13.500;2022-10-04T18:42:25;5.73;;;2.20;;
13834;SDS011;6988;52.614;13.500;2022-10-04T18:47:23;5.37;;;2.23;;
13834;SDS011;6988;52.614;13.500;2022-10-04T18:52:34;6.87;;;2.90;;
13834;SDS011;6988;52.614;13.500;2022-10-04T18:57:38;5.37;;;2.90;;
13834;SDS011;6988;52.614;13.500;2022-10-04T19:02:57;6.00;;;2.60;;
13834;SDS011;6988;52.614;13.500;2022-10-04T19:08:07;6.97;;;2.80;;
13834;SDS011;6988;52.614;13.500;2022-10-04T19:13:23;6.57;;;2.70;;
13834;SDS011;6988;52.614;13.500;2022-10-04T19:18:33;6.00;;;3.10;;
13834;SDS011;6988;52.614;13.500;2022-10-04T19:29:32;7.87;;;3.17;;
13834;SDS011;6988;52.614;13.500;2022-10-04T19:34:44;6.33;;;3.00;;
13834;SDS011;6988;52.614;13.500;2022-10-04T19:39:49;5.13;;;2.70;;
13834;SDS011;6988;52.614;13.500;2022-10-04T19:44:57;8.83;;;3.03;;
13834;SDS011;6988;52.614;13.500;2022-10-04T19:50:04;8.50;;;3.27;;
13834;SDS011;6988;52.614;13.500;2022-10-04T19:55:10;7.07;;;3.20;;
13834;SDS011;6988;52.614;13.500;2022-10-04T20:00:12;7.43;;;3.43;;
13834;SDS011;6988;52.614;13.500;2022-10-04T20:05:11;7.07;;;3.10;;
13834;SDS011;6988;52.614;13.500;2022-10-04T20:10:13;7.57;;;3.67;;
13834;SDS011;6988;52.614;13.500;2022-10-04T20:15:20;4.87;;;2.93;;
13834;SDS011;6988;52.614;13.500;2022-10-04T20:31:50;7.10;;;3.63;;
13834;SDS011;6988;52.614;13.500;2022-10-04T20:36:51;8.13;;;3.77;;
13834;SDS011;6988;52.614;13.500;2022-10-04T20:41:43;8.03;;;3.70;;
13834;SDS011;6988;52.614;13.500;2022-10-04T20:47:14;6.07;;;3.60;;
13834;SDS011;6988;52.614;13.500;2022-10-04T20:52:25;7.07;;;3.90;;
13834;SDS011;6988;52.614;13.500;2022-10-04T20:57:19;9.07;;;3.47;;
13834;SDS011;6988;52.614;13.500;2022-10-04T21:02:14;8.37;;;4.33;;
13834;SDS011;6988;52.614;13.500;2022-10-04T21:07:08;7.87;;;3.53;;
13834;SDS011;6988;52.614;13.500;2022-10-04T21:12:04;7.77;;;3.90;;
13834;SDS011;6988;52.614;13.500;2022-10-04T21:16:57;5.27;;;3.43;;
13834;SDS011;6988;52.614;13.500;2022-10-04T21:21:50;10.60;;;3.87;;
13834;SDS011;6988;52.614;13.500;2022-10-04T21:26:53;6.47;;;3.80;;
13834;SDS011;6988;52.614;13.500;2022-10-04T21:31:47;8.60;;;3.77;;
13834;SDS011;6988;52.614;13.500;2022-10-04T21:36:39;8.07;;;3.60;;
13834;SDS011;6988;52.614;13.500;2022-10-04T21:41:30;4.50;;;3.10;;
13834;SDS011;6988;52.614;13.500;2022-10-04T22:03:57;6.20;;;3.37;;
13834;SDS011;6988;52.614;13.500;2022-10-04T22:08:49;6.50;;;3.30;;
13834;SDS011;6988;52.614;13.500;2022-10-04T22:13:41;5.70;;;3.20;;
13834;SDS011;6988;52.614;13.500;2022-10-04T22:18:33;7.30;;;3.63;;
13834;SDS011;6988;52.614;13.500;2022-10-04T22:23:27;7.53;;;3.77;;
13834;SDS011;6988;52.614;13.500;2022-10-04T22:28:28;6.47;;;3.43;;
13834;SDS011;6988;52.614;13.500;2022-10-04T22:33:23;8.97;;;3.57;;
13834;SDS011;6988;52.614;13.500;2022-10-04T22:38:23;5.50;;;3.37;;
13834;SDS011;6988;52.614;13.500;2022-10-04T22:43:16;6.37;;;3.20;;
13834;SDS011;6988;52.614;13.500;2022-10-04T22:48:09;9.27;;;3.60;;
13834;SDS011;6988;52.614;13.500;2022-10-04T22:53:08;6.77;;;4.27;;
13834;SDS011;6988;52.614;13.500;2022-10-04T22:58:07;5.90;;;3.97;;
13834;SDS011;6988;52.614;13.500;2022-10-04T23:03:09;8.77;;;4.80;;
13834;SDS011;6988;52.614;13.500;2022-10-04T23:08:16;10.97;;;5.30;;
13834;SDS011;6988;52.614;13.500;2022-10-04T23:13:08;4.90;;;3.93;;
13834;SDS011;6988;52.614;13.500;2022-10-04T23:18:01;7.70;;;4.50;;
13834;SDS011;6988;52.614;13.500;2022-10-04T23:23:07;5.33;;;4.10;;
13834;SDS011;6988;52.614;13.500;2022-10-04T23:28:07;7.40;;;4.70;;
13834;SDS011;6988;52.614;13.500;2022-10-04T23:33:05;8.40;;;4.40;;
13834;SDS011;6988;52.614;13.500;2022-10-04T23:38:07;8.40;;;4.20;;
13834;SDS011;6988;52.614;13.500;2022-10-04T23:43:04;11.93;;;5.53;;
13834;SDS011;6988;52.614;13.500;2022-10-04T23:48:04;8.40;;;4.53;;
13834;SDS011;6988;52.614;13.500;2022-10-04T23:53:01;6.40;;;4.53;;
13834;SDS011;6988;52.614;13.500;2022-10-04T23:57:57;7.90;;;4.40;;
